Detall de PIREP

Printer-friendly versionPDF version

[2013/08/31 21:37:00]
Flight IATA:CT1001
Pilot Number:026
Company ICAO:CAT
Aircraft Type:F50/A
PAX:50
Aircraft Registration:PAOB
Departing Airport: LFKJ
Destination Airport: LICJ
Alternate Airport:LICA
Online: VATSIM
Route:CORSI UM858 RAMEN UM732 CAR UM871 KAPIL
Flight Level:F250
No Slew and time accel
No pause
Crash detect
Detect pilot in Cockpit between each 30 and 45 minutes
21:37 Zero fuel Weight: 38305 Lbs, Fuel Weight: 4199 Lbs
21:37 VATSIM:LFKJ 312100Z 04004KT 9999 FEW050 SCT100 21/15 Q1018 NOSIG
21:37 VATSIM:LICJ 312120Z 22001KT 9999 FEW060 26/21 Q1016
21:37 VOICE CATALONIAN / MEDITERRANEAN ODYSSEY LEG2
21:42 Parking Brakes off
21:49 Take-off
21:49 Take off Weight: 42405 Lbs
21:49 Wind: 060º @ 006 Knots Heading: 203º
21:49 POS N41º 54´ 52´´ E008º 47´ 47´´
21:49 Flaps:2 at 118 Knots
21:49 Gear Up: 119 Knots
21:50 Flaps:1 at 127 Knots
21:51 Flaps:0 at 131Knots
22:04 Wind:015º@007 Knots Heading: 173º Ground Speed: 157 Knots Altitude 19176 ft
22:14 TOC
22:14 Fuel Weight: 3347 Lb
22:19 Wind:332º@005 Knots Heading: 176º Ground Speed: 238 Knots Altitude 25249 ft
22:34 Wind:324º@021 Knots Heading: 140º Ground Speed: 250 Knots Altitude 25226 ft
22:49 Wind:028º@017 Knots Heading: 105º Ground Speed: 222 Knots Altitude 25219 ft
23:04 Wind:328º@009 Knots Heading: 108º Ground Speed: 235 Knots Altitude 25203 ft
23:16 TOD
23:16 Fuel Weight: 2256 Lb
23:19 Wind:090º@008 Knots Heading: 109º Ground Speed: 282 Knots Altitude 21535 ft
23:33 Gear Down: 216 Knots
23:33 Flaps:1 at 216 Knots
23:34 Wind:039º@006 Knots Heading: 063º Ground Speed: 189 Knots Altitude 1082 ft
23:34 Flaps:2 at 181 Knots
23:34 Flaps:3 at 142 Knots
23:35 Flaps:4 at 124 Knots
23:35 TouchDown:Rate -252 ft/min Speed: 107 Knots
23:35 VATSIM:LICJ 312320Z 04006KT CAVOK 26/21 Q1016
23:35 Land
23:35 Wind:039º@007 Knots
23:35 Heading: 067º
23:35 Flight Duration: 01:46
23:35 Landing Weight: 40263 Lbs
23:35 POS N38º 10´ 41´´ E013º 05´ 53´´
23:39 Parking brakes on
23:39 Block to Block Duration: 01:57
23:39 Final Fuel: 1929 Lbls
23:39 Spent Fuel: 2270 Lbls
23:39 Flight Length: 343 NM
23:39 TOD Land Length: 73 NM

Exportar CSV

Powered by Drupal - Modified by Danger4k